sensor_id;sensor_type;location;lat;lon;timestamp;pressure;altitude;pressure_sealevel;temperature;humidity
75026;BME280;63591;50.080;8.286;2022-12-18T00:00:44;101004.53;;;9.37;32.08
75026;BME280;63591;50.080;8.286;2022-12-18T00:03:12;100995.72;;;9.38;31.76
75026;BME280;63591;50.080;8.286;2022-12-18T00:05:46;100994.28;;;9.34;31.95
75026;BME280;63591;50.080;8.286;2022-12-18T00:08:11;100990.59;;;9.37;31.90
75026;BME280;63591;50.080;8.286;2022-12-18T00:10:36;100987.97;;;9.37;31.80
75026;BME280;63591;50.080;8.286;2022-12-18T00:13:02;100990.59;;;9.37;31.61
75026;BME280;63591;50.080;8.286;2022-12-18T00:15:27;100982.84;;;9.35;31.54
75026;BME280;63591;50.080;8.286;2022-12-18T00:17:52;100983.69;;;9.35;31.68
75026;BME280;63591;50.080;8.286;2022-12-18T00:20:17;100984.50;;;9.36;31.47
75026;BME280;63591;50.080;8.286;2022-12-18T00:22:50;100979.38;;;9.34;31.48
75026;BME280;63591;50.080;8.286;2022-12-18T00:25:15;100986.41;;;9.34;31.47
75026;BME280;63591;50.080;8.286;2022-12-18T00:27:41;100975.09;;;9.33;31.29
75026;BME280;63591;50.080;8.286;2022-12-18T00:30:06;100982.00;;;9.34;31.23
75026;BME280;63591;50.080;8.286;2022-12-18T00:32:32;100977.69;;;9.33;31.18
75026;BME280;63591;50.080;8.286;2022-12-18T00:34:57;100979.38;;;9.34;31.27
75026;BME280;63591;50.080;8.286;2022-12-18T00:37:23;100982.00;;;9.34;31.04
75026;BME280;63591;50.080;8.286;2022-12-18T00:39:48;100982.13;;;9.33;31.03
75026;BME280;63591;50.080;8.286;2022-12-18T00:42:14;100981.28;;;9.32;31.03
75026;BME280;63591;50.080;8.286;2022-12-18T00:44:58;100986.50;;;9.32;30.89
75026;BME280;63591;50.080;8.286;2022-12-18T00:47:23;100990.81;;;9.33;31.04
75026;BME280;63591;50.080;8.286;2022-12-18T00:49:49;100991.75;;;9.32;30.95
75026;BME280;63591;50.080;8.286;2022-12-18T00:52:14;100993.53;;;9.32;30.77
75026;BME280;63591;50.080;8.286;2022-12-18T00:54:39;100988.28;;;9.32;30.72
75026;BME280;63591;50.080;8.286;2022-12-18T00:57:05;100984.84;;;9.31;30.77
75026;BME280;63591;50.080;8.286;2022-12-18T00:59:30;100991.75;;;9.32;30.52
75026;BME280;63591;50.080;8.286;2022-12-18T01:01:55;100988.41;;;9.30;30.59
75026;BME280;63591;50.080;8.286;2022-12-18T01:04:20;100998.78;;;9.32;30.54
75026;BME280;63591;50.080;8.286;2022-12-18T01:06:46;100984.00;;;9.31;30.55
75026;BME280;63591;50.080;8.286;2022-12-18T01:09:11;100984.00;;;9.31;30.38
75026;BME280;63591;50.080;8.286;2022-12-18T01:11:37;101001.50;;;9.30;30.48
75026;BME280;63591;50.080;8.286;2022-12-18T01:14:02;101007.69;;;9.29;30.53
75026;BME280;63591;50.080;8.286;2022-12-18T01:16:28;101006.84;;;9.29;30.33
75026;BME280;63591;50.080;8.286;2022-12-18T01:18:54;101001.59;;;9.29;30.36
75026;BME280;63591;50.080;8.286;2022-12-18T01:21:20;100999.09;;;9.27;30.26
75026;BME280;63591;50.080;8.286;2022-12-18T01:23:46;101002.56;;;9.28;30.21
75026;BME280;63591;50.080;8.286;2022-12-18T01:26:14;101014.00;;;9.27;30.16
75026;BME280;63591;50.080;8.286;2022-12-18T01:28:40;101024.47;;;9.27;30.10
75026;BME280;63591;50.080;8.286;2022-12-18T01:31:28;101023.09;;;9.21;29.96
75026;BME280;63591;50.080;8.286;2022-12-18T01:33:56;101021.00;;;9.26;30.05
75026;BME280;63591;50.080;8.286;2022-12-18T01:36:24;101023.63;;;9.26;30.05
75026;BME280;63591;50.080;8.286;2022-12-18T01:38:51;101022.66;;;9.27;29.89
75026;BME280;63591;50.080;8.286;2022-12-18T01:41:20;101019.22;;;9.27;30.07
75026;BME280;63591;50.080;8.286;2022-12-18T01:43:55;101025.38;;;9.26;29.83
75026;BME280;63591;50.080;8.286;2022-12-18T01:46:23;101026.25;;;9.26;30.01
75026;BME280;63591;50.080;8.286;2022-12-18T01:48:55;101028.13;;;9.24;29.85
75026;BME280;63591;50.080;8.286;2022-12-18T01:51:21;101013.13;;;9.26;29.80
75026;BME280;63591;50.080;8.286;2022-12-18T01:53:49;101012.28;;;9.26;29.74
75026;BME280;63591;50.080;8.286;2022-12-18T01:56:16;101007.91;;;9.26;29.86
75026;BME280;63591;50.080;8.286;2022-12-18T01:58:51;101011.56;;;9.23;29.73
75026;BME280;63591;50.080;8.286;2022-12-18T02:01:21;101007.91;;;9.26;29.63
75026;BME280;63591;50.080;8.286;2022-12-18T02:03:47;101010.53;;;9.26;29.73
75026;BME280;63591;50.080;8.286;2022-12-18T02:06:16;101016.72;;;9.25;29.80
75026;BME280;63591;50.080;8.286;2022-12-18T02:08:53;101016.81;;;9.23;29.68
75026;BME280;63591;50.080;8.286;2022-12-18T02:14:25;101008.97;;;9.23;29.59
75026;BME280;63591;50.080;8.286;2022-12-18T02:17:01;101010.84;;;9.21;29.61
75026;BME280;63591;50.080;8.286;2022-12-18T02:19:46;101008.97;;;9.23;29.74
75026;BME280;63591;50.080;8.286;2022-12-18T02:27:33;100994.91;;;9.25;29.68
75026;BME280;63591;50.080;8.286;2022-12-18T02:30:02;100990.50;;;9.25;29.42
75026;BME280;63591;50.080;8.286;2022-12-18T02:32:32;100993.34;;;9.22;29.55
75026;BME280;63591;50.080;8.286;2022-12-18T02:34:59;100982.84;;;9.22;29.50
75026;BME280;63591;50.080;8.286;2022-12-18T02:37:27;100980.94;;;9.24;29.76
75026;BME280;63591;50.080;8.286;2022-12-18T02:39:56;100979.50;;;9.20;29.68
75026;BME280;63591;50.080;8.286;2022-12-18T02:42:23;100979.41;;;9.21;29.79
75026;BME280;63591;50.080;8.286;2022-12-18T02:44:51;100982.75;;;9.23;29.71
75026;BME280;63591;50.080;8.286;2022-12-18T02:47:20;100975.00;;;9.22;29.68
75026;BME280;63591;50.080;8.286;2022-12-18T02:57:49;100992.59;;;9.20;29.85
75026;BME280;63591;50.080;8.286;2022-12-18T03:02:55;101005.59;;;9.21;29.77
75026;BME280;63591;50.080;8.286;2022-12-18T03:08:21;101005.69;;;9.20;29.78
75026;BME280;63591;50.080;8.286;2022-12-18T03:10:57;101005.69;;;9.20;29.83
75026;BME280;63591;50.080;8.286;2022-12-18T03:13:36;101007.50;;;9.19;29.87
75026;BME280;63591;50.080;8.286;2022-12-18T03:16:06;101002.97;;;9.21;29.75
75026;BME280;63591;50.080;8.286;2022-12-18T03:18:37;101006.44;;;9.22;29.90
75026;BME280;63591;50.080;8.286;2022-12-18T03:21:05;100998.56;;;9.22;30.02
75026;BME280;63591;50.080;8.286;2022-12-18T03:23:35;100996.88;;;9.21;30.02
75026;BME280;63591;50.080;8.286;2022-12-18T03:26:07;100997.03;;;9.19;29.91
75026;BME280;63591;50.080;8.286;2022-12-18T03:28:39;100995.22;;;9.20;29.91
75026;BME280;63591;50.080;8.286;2022-12-18T03:31:08;100988.31;;;9.19;30.11
75026;BME280;63591;50.080;8.286;2022-12-18T03:34:01;100985.69;;;9.19;30.08
75026;BME280;63591;50.080;8.286;2022-12-18T03:36:24;100982.84;;;9.22;30.02
75026;BME280;63591;50.080;8.286;2022-12-18T03:38:50;100982.13;;;9.20;30.36
75026;BME280;63591;50.080;8.286;2022-12-18T03:41:34;100984.75;;;9.20;30.01
75026;BME280;63591;50.080;8.286;2022-12-18T03:44:26;100983.19;;;9.17;29.94
75026;BME280;63591;50.080;8.286;2022-12-18T03:47:16;100982.22;;;9.18;30.02
75026;BME280;63591;50.080;8.286;2022-12-18T03:49:53;100983.78;;;9.21;29.99
75026;BME280;63591;50.080;8.286;2022-12-18T03:52:32;100994.25;;;9.21;29.94
75026;BME280;63591;50.080;8.286;2022-12-18T03:55:00;100988.00;;;9.23;29.98
75026;BME280;63591;50.080;8.286;2022-12-18T03:57:28;100984.63;;;9.21;30.16
75026;BME280;63591;50.080;8.286;2022-12-18T03:59:57;100991.66;;;9.21;30.35
75026;BME280;63591;50.080;8.286;2022-12-18T04:02:25;100988.22;;;9.20;30.24
75026;BME280;63591;50.080;8.286;2022-12-18T04:04:52;100986.53;;;9.19;30.16
75026;BME280;63591;50.080;8.286;2022-12-18T04:07:19;100973.44;;;9.19;30.24
75026;BME280;63591;50.080;8.286;2022-12-18T04:09:46;100976.06;;;9.19;30.24
75026;BME280;63591;50.080;8.286;2022-12-18T04:12:13;100978.53;;;9.21;30.51
75026;BME280;63591;50.080;8.286;2022-12-18T04:14:38;100975.81;;;9.22;30.45
75026;BME280;63591;50.080;8.286;2022-12-18T04:17:04;100966.28;;;9.21;30.43
75026;BME280;63591;50.080;8.286;2022-12-18T04:19:29;100960.94;;;9.23;30.57
75026;BME280;63591;50.080;8.286;2022-12-18T04:21:54;100962.72;;;9.22;30.62
75026;BME280;63591;50.080;8.286;2022-12-18T04:24:20;100967.03;;;9.23;30.70
75026;BME280;63591;50.080;8.286;2022-12-18T04:26:45;100981.91;;;9.23;30.86
75026;BME280;63591;50.080;8.286;2022-12-18T04:29:11;100983.56;;;9.24;30.92
75026;BME280;63591;50.080;8.286;2022-12-18T04:31:37;100976.66;;;9.23;31.11
75026;BME280;63591;50.080;8.286;2022-12-18T04:34:02;100971.31;;;9.25;31.20
75026;BME280;63591;50.080;8.286;2022-12-18T04:36:28;100964.41;;;9.23;31.19
75026;BME280;63591;50.080;8.286;2022-12-18T04:38:53;100960.84;;;9.25;31.24
75026;BME280;63591;50.080;8.286;2022-12-18T04:41:19;100960.84;;;9.25;31.50
75026;BME280;63591;50.080;8.286;2022-12-18T04:43:44;100966.94;;;9.25;31.23
75026;BME280;63591;50.080;8.286;2022-12-18T04:46:09;100972.88;;;9.27;31.47
75026;BME280;63591;50.080;8.286;2022-12-18T04:48:35;100972.66;;;9.30;31.55
75026;BME280;63591;50.080;8.286;2022-12-18T04:51:00;100971.50;;;9.34;31.72
75026;BME280;63591;50.080;8.286;2022-12-18T04:53:26;100980.09;;;9.37;31.63
75026;BME280;63591;50.080;8.286;2022-12-18T04:56:03;100986.91;;;9.39;31.66
75026;BME280;63591;50.080;8.286;2022-12-18T04:58:29;100983.97;;;9.44;31.80
75026;BME280;63591;50.080;8.286;2022-12-18T05:00:54;100986.69;;;9.42;31.79
75026;BME280;63591;50.080;8.286;2022-12-18T05:03:19;100984.19;;;9.41;31.49
75026;BME280;63591;50.080;8.286;2022-12-18T05:05:44;100978.94;;;9.41;31.85
75026;BME280;63591;50.080;8.286;2022-12-18T05:08:10;100975.63;;;9.39;31.78
75026;BME280;63591;50.080;8.286;2022-12-18T05:10:35;100987.88;;;9.38;31.80
75026;BME280;63591;50.080;8.286;2022-12-18T05:13:00;100990.59;;;9.37;32.27
75026;BME280;63591;50.080;8.286;2022-12-18T05:15:30;100989.03;;;9.34;32.17
75026;BME280;63591;50.080;8.286;2022-12-18T05:17:57;100991.66;;;9.34;32.02
75026;BME280;63591;50.080;8.286;2022-12-18T05:20:22;100987.38;;;9.33;32.08
75026;BME280;63591;50.080;8.286;2022-12-18T05:22:48;100986.50;;;9.32;32.23
75026;BME280;63591;50.080;8.286;2022-12-18T05:25:13;100990.91;;;9.32;32.34
75026;BME280;63591;50.080;8.286;2022-12-18T05:27:38;100989.13;;;9.32;32.42
75026;BME280;63591;50.080;8.286;2022-12-18T05:30:04;100985.66;;;9.32;32.51
75026;BME280;63591;50.080;8.286;2022-12-18T05:32:30;100986.63;;;9.31;32.55
75026;BME280;63591;50.080;8.286;2022-12-18T05:34:55;100983.16;;;9.30;32.34
75026;BME280;63591;50.080;8.286;2022-12-18T05:37:22;100977.91;;;9.30;32.42
75026;BME280;63591;50.080;8.286;2022-12-18T05:39:47;100981.50;;;9.29;32.43
75026;BME280;63591;50.080;8.286;2022-12-18T05:42:13;100980.63;;;9.29;32.70
75026;BME280;63591;50.080;8.286;2022-12-18T05:44:38;100981.50;;;9.29;32.36
75026;BME280;63591;50.080;8.286;2022-12-18T05:47:03;100983.25;;;9.29;32.36
75026;BME280;63591;50.080;8.286;2022-12-18T05:49:29;100975.41;;;9.29;32.48
75026;BME280;63591;50.080;8.286;2022-12-18T05:51:54;100980.63;;;9.29;32.43
75026;BME280;63591;50.080;8.286;2022-12-18T05:54:19;100974.59;;;9.28;32.51
75026;BME280;63591;50.080;8.286;2022-12-18T05:56:45;100964.91;;;9.29;32.61
75026;BME280;63591;50.080;8.286;2022-12-18T05:59:10;100969.25;;;9.30;32.63
75026;BME280;63591;50.080;8.286;2022-12-18T06:01:35;100963.88;;;9.31;32.73
75026;BME280;63591;50.080;8.286;2022-12-18T06:04:01;100970.91;;;9.31;32.74
75026;BME280;63591;50.080;8.286;2022-12-18T06:06:27;100977.91;;;9.30;32.55
75026;BME280;63591;50.080;8.286;2022-12-18T06:08:54;100980.53;;;9.30;32.75
75026;BME280;63591;50.080;8.286;2022-12-18T06:11:23;100986.72;;;9.29;32.65
75026;BME280;63591;50.080;8.286;2022-12-18T06:13:50;100991.13;;;9.29;32.69
75026;BME280;63591;50.080;8.286;2022-12-18T06:16:16;100992.81;;;9.30;32.72
75026;BME280;63591;50.080;8.286;2022-12-18T06:18:41;100994.59;;;9.29;32.66
75026;BME280;63591;50.080;8.286;2022-12-18T06:21:07;100997.22;;;9.29;32.71
75026;BME280;63591;50.080;8.286;2022-12-18T06:23:32;100991.13;;;9.29;32.75
75026;BME280;63591;50.080;8.286;2022-12-18T06:25:57;101005.06;;;9.29;32.62
75026;BME280;63591;50.080;8.286;2022-12-18T06:28:23;101010.31;;;9.29;32.83
75026;BME280;63591;50.080;8.286;2022-12-18T06:30:49;101004.22;;;9.29;32.83
75026;BME280;63591;50.080;8.286;2022-12-18T06:33:15;101012.09;;;9.29;32.69
75026;BME280;63591;50.080;8.286;2022-12-18T06:35:41;101008.63;;;9.28;32.82
75026;BME280;63591;50.080;8.286;2022-12-18T06:38:07;101012.09;;;9.29;32.85
75026;BME280;63591;50.080;8.286;2022-12-18T06:40:32;101019.94;;;9.29;32.73
75026;BME280;63591;50.080;8.286;2022-12-18T06:42:58;101026.97;;;9.28;32.88
75026;BME280;63591;50.080;8.286;2022-12-18T06:45:23;101030.41;;;9.29;32.52
75026;BME280;63591;50.080;8.286;2022-12-18T06:47:49;101033.88;;;9.29;32.64
75026;BME280;63591;50.080;8.286;2022-12-18T06:50:14;101029.50;;;9.30;32.78
75026;BME280;63591;50.080;8.286;2022-12-18T06:52:40;101018.16;;;9.29;32.96
75026;BME280;63591;50.080;8.286;2022-12-18T06:55:06;101023.41;;;9.29;32.61
75026;BME280;63591;50.080;8.286;2022-12-18T06:57:31;101032.13;;;9.30;32.75
75026;BME280;63591;50.080;8.286;2022-12-18T06:59:57;101021.75;;;9.28;32.56
75026;BME280;63591;50.080;8.286;2022-12-18T07:02:22;101020.78;;;9.29;32.74
75026;BME280;63591;50.080;8.286;2022-12-18T07:04:47;101022.66;;;9.27;32.70
75026;BME280;63591;50.080;8.286;2022-12-18T07:07:13;101027.81;;;9.29;32.68
75026;BME280;63591;50.080;8.286;2022-12-18T07:09:38;101028.66;;;9.29;32.66
75026;BME280;63591;50.080;8.286;2022-12-18T07:12:03;101019.94;;;9.29;32.52
75026;BME280;63591;50.080;8.286;2022-12-18T07:14:30;101021.75;;;9.28;32.56
75026;BME280;63591;50.080;8.286;2022-12-18T07:16:55;101018.28;;;9.28;32.59
75026;BME280;63591;50.080;8.286;2022-12-18T07:19:23;101026.13;;;9.28;32.59
75026;BME280;63591;50.080;8.286;2022-12-18T07:21:49;101026.13;;;9.28;32.66
75026;BME280;63591;50.080;8.286;2022-12-18T07:24:15;101023.50;;;9.28;32.46
75026;BME280;63591;50.080;8.286;2022-12-18T07:26:40;101023.50;;;9.28;32.42
75026;BME280;63591;50.080;8.286;2022-12-18T07:29:05;101023.41;;;9.29;32.24
75026;BME280;63591;50.080;8.286;2022-12-18T07:31:31;101019.84;;;9.30;32.42
75026;BME280;63591;50.080;8.286;2022-12-18T07:33:56;101020.78;;;9.29;32.52
75026;BME280;63591;50.080;8.286;2022-12-18T07:36:21;101019.03;;;9.30;32.35
75026;BME280;63591;50.080;8.286;2022-12-18T07:38:48;101032.13;;;9.30;32.51
75026;BME280;63591;50.080;8.286;2022-12-18T07:41:13;101015.56;;;9.29;32.34
75026;BME280;63591;50.080;8.286;2022-12-18T07:43:40;101020.78;;;9.29;32.42
75026;BME280;63591;50.080;8.286;2022-12-18T07:46:06;101027.81;;;9.29;32.38
75026;BME280;63591;50.080;8.286;2022-12-18T07:48:32;101032.31;;;9.27;31.98
75026;BME280;63591;50.080;8.286;2022-12-18T07:51:02;101030.53;;;9.27;32.35
75026;BME280;63591;50.080;8.286;2022-12-18T07:53:29;101032.31;;;9.27;32.35
75026;BME280;63591;50.080;8.286;2022-12-18T07:55:59;101028.00;;;9.26;32.25
75026;BME280;63591;50.080;8.286;2022-12-18T07:58:25;101032.31;;;9.27;32.47
75026;BME280;63591;50.080;8.286;2022-12-18T08:00:50;101049.81;;;9.26;32.21
75026;BME280;63591;50.080;8.286;2022-12-18T08:03:17;101061.16;;;9.27;32.23
75026;BME280;63591;50.080;8.286;2022-12-18T08:05:42;101063.78;;;9.27;32.43
75026;BME280;63591;50.080;8.286;2022-12-18T08:08:08;101067.22;;;9.27;32.43
75026;BME280;63591;50.080;8.286;2022-12-18T08:10:33;101061.97;;;9.27;32.42
75026;BME280;63591;50.080;8.286;2022-12-18T08:12:58;101050.66;;;9.27;32.42
75026;BME280;63591;50.080;8.286;2022-12-18T08:15:24;101057.69;;;9.26;32.49
75026;BME280;63591;50.080;8.286;2022-12-18T08:17:49;101050.66;;;9.27;32.42
75026;BME280;63591;50.080;8.286;2022-12-18T08:20:14;101052.44;;;9.26;32.37
75026;BME280;63591;50.080;8.286;2022-12-18T08:22:43;101061.16;;;9.27;32.38
75026;BME280;63591;50.080;8.286;2022-12-18T08:25:09;101054.09;;;9.27;32.50
75026;BME280;63591;50.080;8.286;2022-12-18T08:27:35;101051.47;;;9.27;32.57
75026;BME280;63591;50.080;8.286;2022-12-18T08:30:02;101053.28;;;9.27;32.41
75026;BME280;63591;50.080;8.286;2022-12-18T08:32:28;101061.16;;;9.27;32.49
75026;BME280;63591;50.080;8.286;2022-12-18T08:34:53;101053.38;;;9.25;32.34
75026;BME280;63591;50.080;8.286;2022-12-18T08:37:19;101048.97;;;9.26;32.42
75026;BME280;63591;50.080;8.286;2022-12-18T08:39:44;101042.81;;;9.27;32.43
75026;BME280;63591;50.080;8.286;2022-12-18T08:42:10;101029.81;;;9.25;32.39
75026;BME280;63591;50.080;8.286;2022-12-18T08:44:53;101035.88;;;9.26;32.39
75026;BME280;63591;50.080;8.286;2022-12-18T08:47:19;101038.50;;;9.26;32.36
75026;BME280;63591;50.080;8.286;2022-12-18T08:49:44;101041.22;;;9.24;32.38
75026;BME280;63591;50.080;8.286;2022-12-18T08:52:09;101037.66;;;9.25;32.56
75026;BME280;63591;50.080;8.286;2022-12-18T08:54:35;101028.13;;;9.24;32.12
75026;BME280;63591;50.080;8.286;2022-12-18T08:57:00;101029.91;;;9.23;32.37
75026;BME280;63591;50.080;8.286;2022-12-18T08:59:25;101025.50;;;9.24;32.35
75026;BME280;63591;50.080;8.286;2022-12-18T09:01:53;101029.06;;;9.23;32.38
75026;BME280;63591;50.080;8.286;2022-12-18T09:04:19;101029.06;;;9.23;32.28
75026;BME280;63591;50.080;8.286;2022-12-18T09:06:44;101041.31;;;9.22;32.47
75026;BME280;63591;50.080;8.286;2022-12-18T09:09:10;101050.88;;;9.23;32.50
75026;BME280;63591;50.080;8.286;2022-12-18T09:11:36;101051.78;;;9.22;32.30
75026;BME280;63591;50.080;8.286;2022-12-18T09:14:02;101065.75;;;9.23;32.39
75026;BME280;63591;50.080;8.286;2022-12-18T09:16:28;101062.28;;;9.22;32.34
75026;BME280;63591;50.080;8.286;2022-12-18T09:18:55;101064.78;;;9.24;32.51
75026;BME280;63591;50.080;8.286;2022-12-18T09:21:25;101062.06;;;9.26;32.36
75026;BME280;63591;50.080;8.286;2022-12-18T09:23:51;101057.78;;;9.25;32.47
75026;BME280;63591;50.080;8.286;2022-12-18T09:26:17;101070.88;;;9.25;32.39
75026;BME280;63591;50.080;8.286;2022-12-18T09:28:43;101066.50;;;9.25;32.70
75026;BME280;63591;50.080;8.286;2022-12-18T09:31:08;101079.59;;;9.25;32.77
75026;BME280;63591;50.080;8.286;2022-12-18T09:33:35;101070.78;;;9.26;32.67
75026;BME280;63591;50.080;8.286;2022-12-18T09:36:04;101060.28;;;9.26;32.85
75026;BME280;63591;50.080;8.286;2022-12-18T09:38:29;101060.28;;;9.26;33.05
75026;BME280;63591;50.080;8.286;2022-12-18T09:41:26;101054.41;;;9.22;33.28
75026;BME280;63591;50.080;8.286;2022-12-18T09:43:56;101046.25;;;9.27;33.08
75026;BME280;63591;50.080;8.286;2022-12-18T09:46:27;101046.25;;;9.27;33.14
75026;BME280;63591;50.080;8.286;2022-12-18T09:48:57;101063.78;;;9.27;33.38
75026;BME280;63591;50.080;8.286;2022-12-18T09:51:37;101063.88;;;9.25;33.21
75026;BME280;63591;50.080;8.286;2022-12-18T09:54:10;101067.09;;;9.29;33.42
75026;BME280;63591;50.080;8.286;2022-12-18T09:56:40;101066.28;;;9.28;33.20
75026;BME280;63591;50.080;8.286;2022-12-18T10:01:44;101066.28;;;9.28;33.43
75026;BME280;63591;50.080;8.286;2022-12-18T10:04:10;101073.28;;;9.28;33.28
75026;BME280;63591;50.080;8.286;2022-12-18T10:06:42;101069.09;;;9.25;33.48
75026;BME280;63591;50.080;8.286;2022-12-18T10:09:27;101064.69;;;9.26;33.51
75026;BME280;63591;50.080;8.286;2022-12-18T10:12:08;101059.56;;;9.24;33.40
75026;BME280;63591;50.080;8.286;2022-12-18T10:14:45;101046.44;;;9.24;33.67
75026;BME280;63591;50.080;8.286;2022-12-18T10:17:27;101046.44;;;9.24;33.50
75026;BME280;63591;50.080;8.286;2022-12-18T10:22:44;101049.72;;;9.28;33.65
75026;BME280;63591;50.080;8.286;2022-12-18T10:27:56;101035.56;;;9.30;33.74
75026;BME280;63591;50.080;8.286;2022-12-18T10:30:24;101039.97;;;9.30;33.68
75026;BME280;63591;50.080;8.286;2022-12-18T10:32:50;101048.66;;;9.30;33.59
75026;BME280;63591;50.080;8.286;2022-12-18T10:35:24;101038.38;;;9.27;33.77
75026;BME280;63591;50.080;8.286;2022-12-18T10:38:20;101037.78;;;9.23;34.01
75026;BME280;63591;50.080;8.286;2022-12-18T10:40:55;101039.34;;;9.26;33.69
75026;BME280;63591;50.080;8.286;2022-12-18T10:43:24;101048.75;;;9.29;33.53
75026;BME280;63591;50.080;8.286;2022-12-18T10:48:41;101039.34;;;9.26;33.74
75026;BME280;63591;50.080;8.286;2022-12-18T10:53:58;101034.09;;;9.26;33.56
75026;BME280;63591;50.080;8.286;2022-12-18T10:56:26;101030.63;;;9.26;33.80
75026;BME280;63591;50.080;8.286;2022-12-18T10:59:15;101034.50;;;9.20;33.66
75026;BME280;63591;50.080;8.286;2022-12-18T11:02:07;101040.59;;;9.20;33.82
75026;BME280;63591;50.080;8.286;2022-12-18T11:04:51;101041.09;;;9.26;33.70
75026;BME280;63591;50.080;8.286;2022-12-18T11:07:17;101037.66;;;9.25;33.64
75026;BME280;63591;50.080;8.286;2022-12-18T11:09:42;101031.59;;;9.25;33.72
75026;BME280;63591;50.080;8.286;2022-12-18T11:12:19;101020.47;;;9.21;33.82
75026;BME280;63591;50.080;8.286;2022-12-18T11:14:52;101022.06;;;9.23;33.91
75026;BME280;63591;50.080;8.286;2022-12-18T11:17:25;101028.97;;;9.25;33.75
75026;BME280;63591;50.080;8.286;2022-12-18T11:19:57;101033.34;;;9.24;33.75
75026;BME280;63591;50.080;8.286;2022-12-18T11:25:06;101029.06;;;9.23;34.31
75026;BME280;63591;50.080;8.286;2022-12-18T11:27:32;101030.53;;;9.27;34.10
75026;BME280;63591;50.080;8.286;2022-12-18T11:33:13;101035.88;;;9.26;33.96
75026;BME280;63591;50.080;8.286;2022-12-18T11:35:55;101035.16;;;9.23;33.95
75026;BME280;63591;50.080;8.286;2022-12-18T11:38:25;101016.59;;;9.27;34.07
75026;BME280;63591;50.080;8.286;2022-12-18T11:41:11;101017.75;;;9.22;34.18
75026;BME280;63591;50.080;8.286;2022-12-18T11:43:59;101022.16;;;9.22;34.14
75026;BME280;63591;50.080;8.286;2022-12-18T11:46:32;101022.88;;;9.24;34.02
75026;BME280;63591;50.080;8.286;2022-12-18T11:49:14;101021.31;;;9.21;34.04
75026;BME280;63591;50.080;8.286;2022-12-18T11:54:29;101030.84;;;9.22;33.98
75026;BME280;63591;50.080;8.286;2022-12-18T12:00:04;101037.88;;;9.22;33.67
75026;BME280;63591;50.080;8.286;2022-12-18T12:07:48;101027.41;;;9.22;33.93
75026;BME280;63591;50.080;8.286;2022-12-18T12:21:28;101009.97;;;9.21;33.90
75026;BME280;63591;50.080;8.286;2022-12-18T12:26:38;101012.94;;;9.16;34.03
75026;BME280;63591;50.080;8.286;2022-12-18T12:37:30;101003.38;;;9.15;34.03
75026;BME280;63591;50.080;8.286;2022-12-18T12:40:01;101006.66;;;9.19;33.89
75026;BME280;63591;50.080;8.286;2022-12-18T12:42:58;100999.84;;;9.16;33.92
75026;BME280;63591;50.080;8.286;2022-12-18T12:46:03;100998.69;;;9.20;34.00
75026;BME280;63591;50.080;8.286;2022-12-18T12:48:46;100990.94;;;9.19;33.93
75026;BME280;63591;50.080;8.286;2022-12-18T12:51:16;100996.06;;;9.20;33.88
75026;BME280;63591;50.080;8.286;2022-12-18T12:53:43;101003.06;;;9.20;33.91
75026;BME280;63591;50.080;8.286;2022-12-18T12:56:11;101008.31;;;9.20;33.86
75026;BME280;63591;50.080;8.286;2022-12-18T12:58:59;101004.88;;;9.19;33.98
75026;BME280;63591;50.080;8.286;2022-12-18T13:04:32;100971.84;;;9.17;33.98
75026;BME280;63591;50.080;8.286;2022-12-18T13:10:14;100966.41;;;9.20;33.91
75026;BME280;63591;50.080;8.286;2022-12-18T13:23:38;100966.63;;;9.30;34.16
75026;BME280;63591;50.080;8.286;2022-12-18T13:31:10;100954.84;;;9.35;34.08
75026;BME280;63591;50.080;8.286;2022-12-18T13:33:41;100954.84;;;9.35;34.07
75026;BME280;63591;50.080;8.286;2022-12-18T13:36:36;100957.81;;;9.31;34.17
75026;BME280;63591;50.080;8.286;2022-12-18T13:41:39;100951.41;;;9.35;34.23
75026;BME280;63591;50.080;8.286;2022-12-18T13:44:32;100942.09;;;9.31;33.91
75026;BME280;63591;50.080;8.286;2022-12-18T13:46:58;100941.75;;;9.35;34.07
75026;BME280;63591;50.080;8.286;2022-12-18T13:51:55;100944.50;;;9.34;34.18
75026;BME280;63591;50.080;8.286;2022-12-18T13:54:32;100941.88;;;9.34;34.09
75026;BME280;63591;50.080;8.286;2022-12-18T13:56:59;100942.69;;;9.34;34.10
75026;BME280;63591;50.080;8.286;2022-12-18T13:59:26;100943.53;;;9.35;33.99
75026;BME280;63591;50.080;8.286;2022-12-18T14:01:57;100936.63;;;9.34;34.18
75026;BME280;63591;50.080;8.286;2022-12-18T14:04:28;100935.66;;;9.35;34.07
75026;BME280;63591;50.080;8.286;2022-12-18T14:07:07;100935.06;;;9.31;34.05
75026;BME280;63591;50.080;8.286;2022-12-18T14:09:40;100934.81;;;9.34;34.20
75026;BME280;63591;50.080;8.286;2022-12-18T14:12:15;100940.19;;;9.33;34.06
75026;BME280;63591;50.080;8.286;2022-12-18T14:15:00;100937.44;;;9.34;34.06
75026;BME280;63591;50.080;8.286;2022-12-18T14:17:26;100933.06;;;9.35;34.21
75026;BME280;63591;50.080;8.286;2022-12-18T14:19:51;100947.09;;;9.34;34.26
75026;BME280;63591;50.080;8.286;2022-12-18T14:22:19;100949.72;;;9.34;34.31
75026;BME280;63591;50.080;8.286;2022-12-18T14:24:45;100944.50;;;9.34;34.33
75026;BME280;63591;50.080;8.286;2022-12-18T14:27:23;100941.97;;;9.32;34.19
75026;BME280;63591;50.080;8.286;2022-12-18T14:29:49;100943.63;;;9.33;34.09
75026;BME280;63591;50.080;8.286;2022-12-18T14:32:17;100941.88;;;9.34;34.31
75026;BME280;63591;50.080;8.286;2022-12-18T14:34:48;100934.81;;;9.34;34.32
75026;BME280;63591;50.080;8.286;2022-12-18T14:37:17;100937.34;;;9.36;34.14
75026;BME280;63591;50.080;8.286;2022-12-18T14:40:02;100937.69;;;9.31;34.16
75026;BME280;63591;50.080;8.286;2022-12-18T14:42:31;100935.66;;;9.35;34.26
75026;BME280;63591;50.080;8.286;2022-12-18T14:48:00;100926.84;;;9.36;34.30
75026;BME280;63591;50.080;8.286;2022-12-18T14:50:25;100933.06;;;9.35;34.33
75026;BME280;63591;50.080;8.286;2022-12-18T14:52:51;100934.81;;;9.34;34.40
75026;BME280;63591;50.080;8.286;2022-12-18T14:55:18;100933.91;;;9.35;34.31